createdAt,value
2023-01-12T00:00:33.730Z,98979.78
2023-01-12T00:06:04.586Z,98963.97
2023-01-12T00:08:37.317Z,98958.03
2023-01-12T00:11:09.681Z,98958.84
2023-01-12T00:13:42.422Z,98953.59
2023-01-12T00:16:38.015Z,98945.19
2023-01-12T00:19:12.129Z,98953.66
2023-01-12T00:22:12.379Z,98949.69
2023-01-12T00:24:48.413Z,98944.44
2023-01-12T00:27:21.777Z,98943.78
2023-01-12T00:29:54.486Z,98933.28
2023-01-12T00:32:26.365Z,98928.06
2023-01-12T00:34:59.172Z,98925.44
2023-01-12T00:37:31.492Z,98926.03
2023-01-12T00:40:07.735Z,98920.03
2023-01-12T00:42:58.376Z,98919.34
2023-01-12T00:45:30.446Z,98929.78
2023-01-12T00:48:02.720Z,98942.28
2023-01-12T00:50:34.568Z,98950.16
2023-01-12T00:53:07.632Z,98950.31
2023-01-12T00:55:39.589Z,98944.38
2023-01-12T00:58:12.258Z,98936.44
2023-01-12T01:00:44.537Z,98933.16
2023-01-12T01:03:18.213Z,98924.00
2023-01-12T01:05:50.065Z,98920.59
2023-01-12T01:08:22.774Z,98914.00
2023-01-12T01:11:10.325Z,98917.13
2023-01-12T01:13:46.221Z,98917.22
2023-01-12T01:16:23.293Z,98934.88
2023-01-12T01:18:57.200Z,98916.56
2023-01-12T01:21:29.164Z,98911.41
2023-01-12T01:24:02.047Z,98922.66
2023-01-12T01:26:33.948Z,98924.00
2023-01-12T01:29:07.021Z,98935.09
2023-01-12T01:31:39.497Z,98927.28
2023-01-12T01:34:12.108Z,98928.59
2023-01-12T01:36:45.170Z,98927.34
2023-01-12T01:39:17.046Z,98932.66
2023-01-12T01:44:53.521Z,98947.28
2023-01-12T01:47:32.569Z,98946.59
2023-01-12T01:50:19.317Z,98948.00
2023-01-12T01:53:00.942Z,98960.53
2023-01-12T01:55:53.950Z,98944.22
2023-01-12T01:58:36.667Z,98955.38
2023-01-12T02:01:09.355Z,98961.34
2023-01-12T02:03:41.958Z,98952.19
2023-01-12T02:06:15.539Z,98941.59
2023-01-12T02:09:00.640Z,98932.44
2023-01-12T02:11:51.737Z,98936.34
2023-01-12T02:14:42.101Z,98944.28
2023-01-12T02:18:02.583Z,98931.06
2023-01-12T02:21:09.591Z,98918.53
2023-01-12T02:24:11.426Z,98902.03
2023-01-12T02:27:19.605Z,98881.03
2023-01-12T02:30:25.853Z,98875.13
2023-01-12T02:33:19.237Z,98883.56
2023-01-12T02:36:06.727Z,98885.59
2023-01-12T02:39:13.333Z,98894.88
2023-01-12T02:42:25.625Z,98896.16
2023-01-12T02:45:10.221Z,98892.22
2023-01-12T02:48:15.689Z,98888.94
2023-01-12T02:51:32.045Z,98869.16
2023-01-12T02:54:34.787Z,98875.59
2023-01-12T02:57:10.991Z,98886.09
2023-01-12T02:59:51.455Z,98884.72
2023-01-12T03:02:25.591Z,98896.59
2023-01-12T03:04:58.317Z,98907.81
2023-01-12T03:07:47.733Z,98893.91
2023-01-12T03:10:46.900Z,98878.88
2023-01-12T03:13:20.896Z,98874.28
2023-01-12T03:15:56.515Z,98868.22
2023-01-12T03:18:38.999Z,98874.16
2023-01-12T03:21:27.069Z,98884.09
2023-01-12T03:24:11.086Z,98879.53
2023-01-12T03:26:48.961Z,98890.00
2023-01-12T03:29:32.025Z,98885.53
2023-01-12T03:32:06.262Z,98886.25
2023-01-12T03:34:40.051Z,98875.16
2023-01-12T03:37:23.628Z,98878.47
2023-01-12T03:40:21.653Z,98878.47
2023-01-12T03:43:09.052Z,98867.94
2023-01-12T03:46:21.902Z,98870.63
2023-01-12T03:49:03.316Z,98869.34
2023-01-12T03:51:42.879Z,98864.09
2023-01-12T03:54:17.145Z,98871.34
2023-01-12T03:56:52.138Z,98852.28
2023-01-12T03:59:24.920Z,98870.75
2023-01-12T04:01:58.201Z,98874.06
2023-01-12T04:04:30.676Z,98868.84
2023-01-12T04:07:02.667Z,98868.78
2023-01-12T04:09:35.549Z,98871.47
2023-01-12T04:12:10.172Z,98859.72
2023-01-12T04:14:47.921Z,98857.03
2023-01-12T04:17:24.166Z,98849.78
2023-01-12T04:19:56.948Z,98866.25
2023-01-12T04:22:43.426Z,98870.19
2023-01-12T04:25:22.344Z,98859.75
2023-01-12T04:28:04.037Z,98863.69
2023-01-12T04:30:36.777Z,98851.78
2023-01-12T04:33:09.334Z,98855.09
2023-01-12T04:35:42.065Z,98850.50
2023-01-12T04:38:14.664Z,98859.06
2023-01-12T04:40:53.781Z,98862.31
2023-01-12T04:43:26.472Z,98852.47
2023-01-12T04:45:58.406Z,98844.56
2023-01-12T04:48:31.583Z,98833.47
2023-01-12T04:51:03.981Z,98827.50
2023-01-12T04:56:31.686Z,98868.19
2023-01-12T04:59:04.457Z,98843.75
2023-01-12T05:01:38.990Z,98845.09
2023-01-12T05:04:11.912Z,98852.97
2023-01-12T05:06:44.243Z,98859.47
2023-01-12T05:09:36.797Z,98857.53
2023-01-12T05:12:09.531Z,98856.03
2023-01-12T05:14:41.861Z,98855.31
2023-01-12T05:17:14.188Z,98848.69
2023-01-12T05:19:46.103Z,98851.38
2023-01-12T05:22:18.823Z,98851.28
2023-01-12T05:24:50.806Z,98840.16
2023-01-12T05:27:24.055Z,98825.03
2023-01-12T05:29:59.595Z,98844.69
2023-01-12T05:32:38.641Z,98826.44
2023-01-12T05:35:11.001Z,98829.00
2023-01-12T05:37:43.296Z,98815.78
2023-01-12T05:40:16.446Z,98815.13
2023-01-12T05:43:10.245Z,98817.31
2023-01-12T05:45:43.071Z,98806.19
2023-01-12T05:48:15.036Z,98797.72
2023-01-12T05:50:47.797Z,98820.13
2023-01-12T05:53:20.233Z,98807.03
2023-01-12T05:55:52.123Z,98799.06
2023-01-12T05:58:25.776Z,98797.81
2023-01-12T06:00:58.125Z,98794.56
2023-01-12T06:03:30.069Z,98804.97
2023-01-12T06:06:04.434Z,98807.00
2023-01-12T06:08:36.929Z,98802.53
2023-01-12T06:11:31.093Z,98817.53
2023-01-12T06:14:04.040Z,98809.66
2023-01-12T06:16:43.478Z,98817.53
2023-01-12T06:19:15.380Z,98811.06
2023-01-12T06:21:48.197Z,98811.81
2023-01-12T06:24:20.152Z,98814.38
2023-01-12T06:26:55.255Z,98816.44
2023-01-12T06:29:27.588Z,98807.88
2023-01-12T06:32:00.373Z,98817.09
2023-01-12T06:34:35.324Z,98804.06
2023-01-12T06:37:08.885Z,98804.63
2023-01-12T06:39:40.849Z,98800.06
2023-01-12T06:42:29.066Z,98802.13
2023-01-12T06:45:05.757Z,98793.56
2023-01-12T06:48:01.868Z,98768.56
2023-01-12T06:50:34.973Z,98781.09
2023-01-12T06:53:08.388Z,98794.25
2023-01-12T06:55:40.304Z,98784.38
2023-01-12T06:58:13.043Z,98804.13
2023-01-12T07:00:45.394Z,98798.19
2023-01-12T07:03:20.488Z,98789.00
2023-01-12T07:05:53.485Z,98792.91
2023-01-12T07:08:26.944Z,98801.41
2023-01-12T07:11:03.824Z,98798.13
2023-01-12T07:13:39.798Z,98801.47
2023-01-12T07:16:12.140Z,98814.63
2023-01-12T07:18:47.548Z,98788.34
2023-01-12T07:21:19.815Z,98780.97
2023-01-12T07:23:52.542Z,98773.69
2023-01-12T07:26:24.476Z,98782.25
2023-01-12T07:28:57.468Z,98791.44
2023-01-12T07:31:30.391Z,98786.97
2023-01-12T07:34:04.012Z,98788.34
2023-01-12T07:39:32.128Z,98779.25
2023-01-12T07:42:23.835Z,98797.06
2023-01-12T07:44:56.600Z,98770.88
2023-01-12T07:47:30.062Z,98774.16
2023-01-12T07:50:03.835Z,98781.44
2023-01-12T07:52:36.809Z,98781.44
2023-01-12T07:55:09.638Z,98780.19
2023-01-12T07:57:44.145Z,98763.75
2023-01-12T08:00:17.204Z,98774.31
2023-01-12T08:02:54.326Z,98759.19
2023-01-12T08:05:26.365Z,98751.38
2023-01-12T08:07:59.141Z,98740.91
2023-01-12T08:10:31.221Z,98771.19
2023-01-12T08:13:04.402Z,98765.31
2023-01-12T08:15:42.984Z,98768.69
2023-01-12T08:18:24.393Z,98778.63
2023-01-12T08:21:00.719Z,98784.00
2023-01-12T08:23:41.757Z,98786.06
2023-01-12T08:26:31.119Z,98798.59
2023-01-12T08:29:12.924Z,98788.13
2023-01-12T08:31:45.072Z,98791.44
2023-01-12T08:34:18.353Z,98803.34
2023-01-12T08:36:50.850Z,98777.03
2023-01-12T08:39:23.560Z,98785.63
2023-01-12T08:41:56.016Z,98773.78
2023-01-12T08:44:38.200Z,98781.72
2023-01-12T08:47:29.573Z,98789.63
2023-01-12T08:50:01.753Z,98790.25
2023-01-12T08:52:38.488Z,98787.09
2023-01-12T08:55:11.776Z,98796.94
2023-01-12T08:57:44.143Z,98791.72
2023-01-12T09:00:16.808Z,98789.00
2023-01-12T09:02:49.979Z,98785.72
2023-01-12T09:05:22.504Z,98804.88
2023-01-12T09:07:54.825Z,98783.81
2023-01-12T09:10:28.598Z,98795.66
2023-01-12T09:13:01.344Z,98808.88
2023-01-12T09:15:33.268Z,98795.06
2023-01-12T09:18:06.076Z,98802.25
2023-01-12T09:20:38.484Z,98787.81
2023-01-12T09:23:11.340Z,98804.91
2023-01-12T09:25:43.626Z,98785.06
2023-01-12T09:28:35.475Z,98795.38
2023-01-12T09:31:11.686Z,98774.69
2023-01-12T09:33:44.450Z,98771.97
2023-01-12T09:36:21.002Z,98773.16
2023-01-12T09:38:53.748Z,98804.91
2023-01-12T09:42:18.629Z,98817.44
2023-01-12T09:45:11.079Z,98827.34
2023-01-12T09:47:54.032Z,98823.19
2023-01-12T09:50:33.593Z,98819.34
2023-01-12T09:53:16.385Z,98825.31
2023-01-12T09:56:04.196Z,98812.66
2023-01-12T09:58:58.702Z,98822.63
2023-01-12T10:01:30.687Z,98802.97
2023-01-12T10:04:04.708Z,98822.16
2023-01-12T10:06:36.984Z,98812.22
2023-01-12T10:09:38.193Z,98805.09
2023-01-12T10:12:19.993Z,98803.25
2023-01-12T10:15:10.545Z,98809.16
2023-01-12T10:17:51.615Z,98818.28
2023-01-12T10:20:36.586Z,98797.97
2023-01-12T10:23:09.207Z,98802.53
2023-01-12T10:25:48.618Z,98799.94
2023-01-12T10:28:36.565Z,98804.34
2023-01-12T10:31:16.804Z,98806.28
2023-01-12T10:34:12.218Z,98802.97
2023-01-12T10:36:49.898Z,98797.63
2023-01-12T10:39:31.603Z,98794.38
2023-01-12T10:42:42.623Z,98780.56
2023-01-12T10:45:22.261Z,98779.25
2023-01-12T10:47:56.209Z,98796.56
2023-01-12T10:50:35.208Z,98781.28
2023-01-12T10:53:17.459Z,98781.47
2023-01-12T10:55:49.759Z,98776.88
2023-01-12T10:58:27.826Z,98776.19
2023-01-12T11:01:00.076Z,98786.00
2023-01-12T11:03:38.083Z,98776.13
2023-01-12T11:06:28.892Z,98804.63
2023-01-12T11:09:26.326Z,98761.22
2023-01-12T11:12:24.690Z,98752.06
2023-01-12T11:15:12.458Z,98757.91
2023-01-12T11:18:06.030Z,98755.19
2023-01-12T11:21:09.638Z,98748.56
2023-01-12T11:24:09.535Z,98773.50
2023-01-12T11:26:50.481Z,98753.19
2023-01-12T11:29:42.359Z,98748.06
2023-01-12T11:32:34.090Z,98752.00
2023-01-12T11:35:39.740Z,98744.03
2023-01-12T11:38:19.349Z,98739.41
2023-01-12T11:40:56.695Z,98733.31
2023-01-12T11:43:51.323Z,98729.38
2023-01-12T11:46:47.969Z,98712.97
2023-01-12T11:49:32.010Z,98711.66
2023-01-12T11:52:04.104Z,98714.31
2023-01-12T11:54:38.737Z,98708.38
2023-01-12T11:57:45.830Z,98712.34
2023-01-12T12:01:12.908Z,98710.34
2023-01-12T12:03:45.637Z,98713.66
2023-01-12T12:06:44.977Z,98707.81
2023-01-12T12:09:52.192Z,98704.50
2023-01-12T12:12:55.627Z,98699.88
2023-01-12T12:16:24.045Z,98701.25
2023-01-12T12:19:14.225Z,98704.53
2023-01-12T12:21:53.126Z,98686.75
2023-01-12T12:24:42.580Z,98692.66
2023-01-12T12:27:45.644Z,98718.97
2023-01-12T12:30:35.577Z,98697.88
2023-01-12T12:33:38.399Z,98682.75
2023-01-12T12:36:35.400Z,98662.97
2023-01-12T12:39:49.534Z,98684.09
2023-01-12T12:43:08.352Z,98688.03
2023-01-12T12:46:16.061Z,98685.44
2023-01-12T12:49:18.417Z,98676.22
2023-01-12T12:51:51.633Z,98666.44
2023-01-12T12:54:25.087Z,98657.88
2023-01-12T12:56:57.710Z,98657.25
2023-01-12T12:59:40.919Z,98636.72
2023-01-12T13:02:35.247Z,98640.69
2023-01-12T13:05:10.082Z,98638.72
2023-01-12T13:07:45.381Z,98634.84
2023-01-12T13:10:30.915Z,98640.81
2023-01-12T13:13:32.775Z,98627.66
2023-01-12T13:16:19.891Z,98619.03
2023-01-12T13:19:06.940Z,98622.97
2023-01-12T13:21:57.885Z,98613.72
2023-01-12T13:24:42.051Z,98612.44
2023-01-12T13:28:01.105Z,98620.38
2023-01-12T13:30:34.979Z,98631.56
2023-01-12T13:33:24.816Z,98626.97
2023-01-12T13:36:08.684Z,98629.53
2023-01-12T13:38:56.283Z,98630.19
2023-01-12T13:41:53.758Z,98636.81
2023-01-12T13:44:37.069Z,98626.28
2023-01-12T13:47:17.962Z,98632.91
2023-01-12T13:49:57.220Z,98633.53
2023-01-12T13:52:32.321Z,98636.19
2023-01-12T13:55:23.749Z,98638.78
2023-01-12T13:58:16.875Z,98652.69
2023-01-12T14:01:01.663Z,98640.84
2023-01-12T14:04:00.148Z,98640.81
2023-01-12T14:07:06.760Z,98634.94
2023-01-12T14:10:06.671Z,98621.72
2023-01-12T14:13:07.265Z,98630.88
2023-01-12T14:16:01.011Z,98628.94
2023-01-12T14:18:45.864Z,98627.63
2023-01-12T14:21:26.029Z,98624.31
2023-01-12T14:24:23.623Z,98620.34
2023-01-12T14:26:55.983Z,98618.41
2023-01-12T14:29:28.841Z,98627.00
2023-01-12T14:32:00.857Z,98613.13
2023-01-12T14:34:37.193Z,98626.97
2023-01-12T14:37:26.920Z,98619.72
2023-01-12T14:39:59.747Z,98627.66
2023-01-12T14:42:50.667Z,98609.16
2023-01-12T14:45:45.806Z,98604.53
2023-01-12T14:48:28.842Z,98592.03
2023-01-12T14:51:30.542Z,98570.91
2023-01-12T14:54:08.882Z,98578.16
2023-01-12T14:56:49.263Z,98583.47
2023-01-12T14:59:25.220Z,98577.53
2023-01-12T15:02:14.288Z,98593.34
2023-01-12T15:04:58.980Z,98595.97
2023-01-12T15:08:00.921Z,98597.97
2023-01-12T15:10:42.683Z,98578.19
2023-01-12T15:13:25.484Z,98586.75
2023-01-12T15:16:16.433Z,98588.72
2023-01-12T15:19:09.340Z,98582.78
2023-01-12T15:22:04.572Z,98575.50
2023-01-12T15:24:55.445Z,98576.19
2023-01-12T15:27:28.297Z,98572.88
2023-01-12T15:30:00.874Z,98572.88
2023-01-12T15:32:48.059Z,98569.59
2023-01-12T15:35:24.610Z,98575.50
2023-01-12T15:37:58.757Z,98578.16
2023-01-12T15:40:31.419Z,98569.59
2023-01-12T15:43:05.129Z,98566.97
2023-01-12T15:45:43.216Z,98575.50
2023-01-12T15:48:15.636Z,98578.09
2023-01-12T15:50:47.972Z,98579.41
2023-01-12T15:53:24.368Z,98574.16
2023-01-12T15:55:56.664Z,98588.00
2023-01-12T15:58:30.867Z,98574.84
2023-01-12T16:01:06.877Z,98575.50
2023-01-12T16:04:02.603Z,98573.50
2023-01-12T16:06:33.960Z,98569.59
2023-01-12T16:09:06.217Z,98563.00
2023-01-12T16:11:38.394Z,98565.63
2023-01-12T16:14:10.671Z,98561.69
2023-01-12T16:16:43.085Z,98544.53
2023-01-12T16:19:21.823Z,98551.75
2023-01-12T16:21:55.769Z,98560.97
2023-01-12T16:24:31.252Z,98547.81
2023-01-12T16:27:03.661Z,98568.28
2023-01-12T16:29:36.315Z,98549.19
2023-01-12T16:32:08.860Z,98559.72
2023-01-12T16:34:41.333Z,98554.41
2023-01-12T16:37:15.715Z,98555.72
2023-01-12T16:39:48.902Z,98566.97
2023-01-12T16:42:21.208Z,98559.06
2023-01-12T16:44:53.799Z,98563.66
2023-01-12T16:47:26.226Z,98555.81
2023-01-12T16:49:58.870Z,98555.13
2023-01-12T16:52:30.891Z,98561.69
2023-01-12T16:55:04.821Z,98562.38
2023-01-12T16:57:37.285Z,98563.03
2023-01-12T17:00:11.635Z,98553.78
2023-01-12T17:02:44.420Z,98570.31
2023-01-12T17:05:16.616Z,98544.59
2023-01-12T17:07:49.365Z,98575.59
2023-01-12T17:10:21.725Z,98558.44
2023-01-12T17:12:58.808Z,98551.19
2023-01-12T17:15:31.938Z,98551.19
2023-01-12T17:18:05.400Z,98545.25
2023-01-12T17:20:37.458Z,98542.63
2023-01-12T17:23:10.152Z,98526.09
2023-01-12T17:25:42.108Z,98521.50
2023-01-12T17:28:15.085Z,98530.06
2023-01-12T17:30:47.759Z,98542.59
2023-01-12T17:33:21.126Z,98540.59
2023-01-12T17:35:55.512Z,98536.03
2023-01-12T17:38:28.691Z,98559.78
2023-01-12T17:41:05.915Z,98531.41
2023-01-12T17:43:38.685Z,98520.84
2023-01-12T17:46:19.079Z,98516.88
2023-01-12T17:48:51.425Z,98515.56
2023-01-12T17:51:24.623Z,98512.28
2023-01-12T17:53:58.990Z,98492.50
2023-01-12T17:56:32.944Z,98503.06
2023-01-12T17:59:07.075Z,98501.75
2023-01-12T18:01:40.966Z,98501.06
2023-01-12T18:04:15.986Z,98487.22
2023-01-12T18:06:48.144Z,98505.69
2023-01-12T18:09:20.984Z,98505.03
2023-01-12T18:11:53.049Z,98507.72
2023-01-12T18:14:26.465Z,98510.31
2023-01-12T18:16:59.278Z,98536.03
2023-01-12T18:19:31.259Z,98507.00
2023-01-12T18:22:07.292Z,98503.03
2023-01-12T18:24:39.255Z,98505.03
2023-01-12T18:27:12.454Z,98503.72
2023-01-12T18:29:44.365Z,98502.41
2023-01-12T18:32:17.556Z,98500.41
2023-01-12T18:34:49.966Z,98500.41
2023-01-12T18:37:23.038Z,98512.94
2023-01-12T18:42:51.739Z,98502.38
2023-01-12T18:45:24.748Z,98506.34
2023-01-12T18:48:16.148Z,98505.69
2023-01-12T18:51:11.738Z,98493.84
2023-01-12T18:53:44.193Z,98490.53
2023-01-12T18:56:16.472Z,98485.91
2023-01-12T18:58:49.179Z,98482.59
2023-01-12T19:01:24.519Z,98476.66
2023-01-12T19:03:57.324Z,98471.41
2023-01-12T19:06:42.772Z,98488.53
2023-01-12T19:09:33.699Z,98474.03
2023-01-12T19:12:06.437Z,98459.53
2023-01-12T19:14:57.501Z,98456.22
2023-01-12T19:17:32.773Z,98462.16
2023-01-12T19:20:09.392Z,98456.22
2023-01-12T19:23:00.295Z,98474.03
2023-01-12T19:25:51.233Z,98476.69
2023-01-12T19:28:39.076Z,98471.38
2023-01-12T19:31:12.574Z,98479.97
2023-01-12T19:33:45.623Z,98468.78
2023-01-12T19:36:18.278Z,98474.06
2023-01-12T19:38:53.951Z,98462.19
2023-01-12T19:41:44.973Z,98468.78
2023-01-12T19:44:18.048Z,98457.56
2023-01-12T19:46:50.703Z,98452.94
2023-01-12T19:49:22.757Z,98437.78
2023-01-12T19:51:55.137Z,98438.44
2023-01-12T19:54:28.950Z,98448.34
2023-01-12T19:57:01.815Z,98466.13
2023-01-12T19:59:34.172Z,98460.84
2023-01-12T20:02:07.127Z,98448.34
2023-01-12T20:04:39.171Z,98468.78
2023-01-12T20:07:12.278Z,98445.03
2023-01-12T20:09:45.875Z,98464.84
2023-01-12T20:12:18.587Z,98447.69
2023-01-12T20:14:50.469Z,98439.09
2023-01-12T20:17:23.278Z,98432.50
2023-01-12T20:19:55.219Z,98439.09
2023-01-12T20:22:27.549Z,98433.19
2023-01-12T20:25:01.517Z,98435.81
2023-01-12T20:27:35.828Z,98436.44
2023-01-12T20:30:10.691Z,98456.94
2023-01-12T20:32:46.392Z,98452.31
2023-01-12T20:35:23.163Z,98445.03
2023-01-12T20:37:55.804Z,98439.13
2023-01-12T20:40:28.022Z,98441.75
2023-01-12T20:43:00.282Z,98426.59
2023-01-12T20:45:32.728Z,98444.38
2023-01-12T20:48:05.286Z,98441.72
2023-01-12T20:50:37.239Z,98435.16
2023-01-12T20:53:10.990Z,98431.19
2023-01-12T20:55:49.662Z,98441.75
2023-01-12T20:58:22.517Z,98429.22
2023-01-12T21:00:55.033Z,98427.88
2023-01-12T21:03:27.954Z,98421.94
2023-01-12T21:06:01.020Z,98425.91
2023-01-12T21:08:33.668Z,98427.88
2023-01-12T21:11:06.001Z,98410.72
2023-01-12T21:13:38.671Z,98408.09
2023-01-12T21:16:15.181Z,98421.94
2023-01-12T21:18:48.471Z,98410.72
2023-01-12T21:21:20.431Z,98406.13
2023-01-12T21:23:52.936Z,98419.97
2023-01-12T21:26:25.281Z,98396.91
2023-01-12T21:28:59.132Z,98396.91
2023-01-12T21:31:31.138Z,98383.00
2023-01-12T21:34:03.640Z,98398.19
2023-01-12T21:36:35.808Z,98398.19
2023-01-12T21:39:08.357Z,98405.44
2023-01-12T21:41:58.864Z,98390.94
2023-01-12T21:44:31.341Z,98394.91
2023-01-12T21:47:03.275Z,98388.28
2023-01-12T21:49:35.779Z,98393.56
2023-01-12T21:52:08.055Z,98388.94
2023-01-12T21:54:40.517Z,98393.56
2023-01-12T21:57:12.485Z,98377.03
2023-01-12T21:59:44.939Z,98390.94
2023-01-12T22:02:17.365Z,98388.28
2023-01-12T22:04:49.892Z,98382.38
2023-01-12T22:07:26.160Z,98397.53
2023-01-12T22:10:19.119Z,98393.56
2023-01-12T22:12:55.515Z,98392.88
2023-01-12T22:15:29.786Z,98394.25
2023-01-12T22:18:02.131Z,98386.97
2023-01-12T22:20:34.629Z,98394.88
2023-01-12T22:23:07.545Z,98386.97
2023-01-12T22:25:40.041Z,98392.88
2023-01-12T22:28:12.020Z,98392.88
2023-01-12T22:30:45.098Z,98386.28
2023-01-12T22:33:17.116Z,98391.56
2023-01-12T22:35:49.963Z,98399.47
2023-01-12T22:38:22.244Z,98396.84
2023-01-12T22:43:26.800Z,98394.22
2023-01-12T22:45:59.271Z,98392.88
2023-01-12T22:48:31.211Z,98398.16
2023-01-12T22:51:04.400Z,98399.47
2023-01-12T22:53:36.788Z,98399.50
2023-01-12T22:56:11.635Z,98401.47
2023-01-12T22:58:51.700Z,98398.19
2023-01-12T23:01:25.927Z,98373.75
2023-01-12T23:03:58.581Z,98386.28
2023-01-12T23:06:31.193Z,98373.75
2023-01-12T23:09:03.782Z,98373.09
2023-01-12T23:11:36.407Z,98361.19
2023-01-12T23:14:08.441Z,98365.78
2023-01-12T23:16:41.052Z,98372.44
2023-01-12T23:19:13.138Z,98367.78
2023-01-12T23:21:49.044Z,98374.41
2023-01-12T23:24:21.114Z,98357.88
2023-01-12T23:26:54.528Z,98362.50
2023-01-12T23:29:26.596Z,98358.56
2023-01-12T23:31:59.271Z,98355.94
2023-01-12T23:34:31.578Z,98344.72
2023-01-12T23:37:04.246Z,98341.41
2023-01-12T23:39:36.510Z,98334.16
2023-01-12T23:42:09.137Z,98322.91
2023-01-12T23:44:41.175Z,98311.03
2023-01-12T23:47:16.170Z,98318.94
2023-01-12T23:49:48.278Z,98307.75
2023-01-12T23:52:20.949Z,98299.16
2023-01-12T23:54:55.810Z,98289.91
2023-01-12T23:57:29.451Z,98278.66
